Time;durP1;ratioP1;P1;durP2;ratioP2;P2;SDS_P1;SDS_P2;PMS_P1;PMS_P2;Temp;Humidity;BMP_temperature;BMP_pressure;BME280_temperature;BME280_humidity;BME280_pressure;Samples;Min_cycle;Max_cycle;Signal;HPM_P1;HPM_P2
2022/09/29 00:01:12;;;;;;;4.47;1.97;;;9.50;93.60;;;12.55;52.83;96108.44;5023600;28;20060;-50
2022/09/29 00:03:40;;;;;;;4.13;2.20;;;9.50;92.80;;;12.59;52.77;96108.81;5023574;28;20050;-46
2022/09/29 00:06:14;;;;;;;3.80;2.00;;;9.50;93.30;;;12.59;52.67;96106.97;5021257;28;20041;-47
2022/09/29 00:08:44;;;;;;;5.93;2.57;;;9.50;92.70;;;12.59;52.74;96098.97;5023176;28;20049;-50
2022/09/29 00:11:17;;;;;;;4.23;2.10;;;9.40;92.60;;;12.58;52.63;96104.50;5022561;28;20049;-48
2022/09/29 00:13:46;;;;;;;2.50;2.30;;;9.40;92.60;;;12.61;52.79;96109.44;5022628;28;20042;-48
2022/09/29 00:16:14;;;;;;;4.37;1.70;;;9.40;92.30;;;12.59;52.60;96108.81;5023269;28;20053;-47
2022/09/29 00:18:42;;;;;;;5.40;2.50;;;9.50;92.20;;;12.60;52.55;96108.63;5021811;28;20348;-49
2022/09/29 00:21:18;;;;;;;4.33;3.03;;;9.40;91.90;;;12.54;52.85;96098.78;5023926;28;20348;-47
2022/09/29 00:23:48;;;;;;;6.63;2.40;;;9.40;92.30;;;12.57;52.61;96098.34;5023358;28;20045;-50
2022/09/29 00:26:18;;;;;;;6.00;2.20;;;9.50;92.50;;;12.55;52.94;96094.25;5023451;28;20054;-50
2022/09/29 00:28:56;;;;;;;3.90;2.10;;;9.50;92.60;;;12.51;52.50;96088.53;5022747;28;20255;-46
2022/09/29 00:31:27;;;;;;;6.57;3.50;;;9.40;92.60;;;12.47;52.45;96091.84;5021597;28;20056;-47
2022/09/29 00:33:56;;;;;;;7.27;2.63;;;9.30;93.20;;;12.42;52.62;96089.78;5022888;28;20079;-47
2022/09/29 00:36:28;;;;;;;4.60;2.33;;;9.20;93.60;;;12.43;52.66;96082.59;5022938;28;20054;-46
2022/09/29 00:38:58;;;;;;;8.23;2.70;;;9.20;93.60;;;12.37;52.62;96087.75;5022941;28;20046;-49
2022/09/29 00:41:33;;;;;;;3.70;2.20;;;9.20;93.80;;;12.33;52.74;96085.69;5022785;28;20252;-48
2022/09/29 00:44:08;;;;;;;3.57;2.30;;;9.10;94.00;;;12.29;53.01;96089.81;5022828;28;20046;-47
2022/09/29 00:46:59;;;;;;;3.13;2.20;;;9.10;94.60;;;12.24;52.87;96085.13;5022759;28;20228;-49
2022/09/29 00:49:40;;;;;;;6.33;3.00;;;9.10;94.90;;;12.24;53.28;96084.31;5022607;28;20042;-47
2022/09/29 00:52:28;;;;;;;5.80;2.33;;;9.00;95.50;;;12.18;53.09;96081.44;5022855;28;20037;-47
2022/09/29 00:55:14;;;;;;;4.87;2.87;;;9.00;96.20;;;12.19;52.96;96076.91;5022443;28;20060;-47
2022/09/29 00:58:23;;;;;;;3.93;2.03;;;9.00;96.50;;;12.19;53.15;96085.78;5020919;28;20060;-49
2022/09/29 01:00:51;;;;;;;3.83;2.23;;;9.00;96.30;;;12.24;52.99;96087.78;5022706;28;20064;-48
2022/09/29 01:03:22;;;;;;;4.17;2.40;;;9.10;95.80;;;12.17;53.19;96078.97;5021139;28;20366;-48
2022/09/29 01:06:05;;;;;;;4.10;2.20;;;9.00;95.60;;;12.13;53.13;96081.25;5020317;28;20042;-50
2022/09/29 01:08:50;;;;;;;4.50;2.50;;;9.10;96.20;;;12.14;53.24;96087.41;5020997;28;20046;-47
2022/09/29 01:11:20;;;;;;;4.90;2.93;;;9.10;96.00;;;12.13;52.96;96080.44;5022451;28;20052;-49
2022/09/29 01:13:50;;;;;;;3.53;2.40;;;9.00;95.90;;;12.09;53.43;96077.34;5022247;28;20042;-46
2022/09/29 01:16:18;;;;;;;5.43;2.63;;;9.00;96.40;;;12.09;53.72;96079.22;5022964;28;20053;-51
2022/09/29 01:18:46;;;;;;;6.67;3.10;;;9.00;97.70;;;12.09;53.50;96074.69;5021506;28;20050;-47
2022/09/29 01:21:40;;;;;;;3.57;2.20;;;8.90;97.40;;;12.11;53.34;96072.63;5021379;28;20351;-47
2022/09/29 01:24:35;;;;;;;6.40;2.77;;;9.00;98.60;;;12.15;53.41;96079.19;5021532;28;20076;-47
2022/09/29 01:27:30;;;;;;;4.50;2.13;;;9.00;98.70;;;12.12;53.76;96070.81;5021236;28;20233;-47
2022/09/29 01:30:25;;;;;;;4.30;3.33;;;8.90;99.80;;;12.07;53.96;96070.59;5021394;28;20041;-49
2022/09/29 01:33:21;;;;;;;5.33;2.60;;;8.90;99.90;;;12.05;54.22;96078.81;5020673;28;20045;-48
2022/09/29 01:36:22;;;;;;;6.80;3.17;;;8.90;99.90;;;12.09;54.36;96081.88;5022421;28;20049;-48
2022/09/29 01:39:17;;;;;;;4.53;2.33;;;8.90;99.90;;;12.13;54.15;96085.78;5021337;28;20058;-47
2022/09/29 01:42:18;;;;;;;4.53;2.40;;;9.00;99.90;;;12.09;54.53;96088.03;5021335;28;20359;-48
2022/09/29 01:48:24;;;;;;;4.63;2.77;;;8.90;99.90;;;12.05;54.80;96076.13;5021767;28;20034;-48
2022/09/29 01:50:57;;;;;;;4.33;2.60;;;8.90;99.90;;;12.08;54.79;96080.22;5021008;28;20042;-47
2022/09/29 01:53:38;;;;;;;4.57;2.57;;;8.90;99.90;;;12.11;54.59;96079.81;5020855;28;20052;-47
2022/09/29 01:56:14;;;;;;;3.40;2.43;;;8.90;99.90;;;12.16;54.87;96086.16;5021836;28;20072;-46
2022/09/29 01:59:02;;;;;;;4.83;2.73;;;9.00;99.90;;;12.12;54.96;96089.47;5020547;28;20042;-48
2022/09/29 02:01:37;;;;;;;6.23;2.63;;;8.90;99.90;;;12.11;55.09;96088.63;5022009;28;20050;-49
2022/09/29 02:04:32;;;;;;;4.83;2.70;;;8.90;99.90;;;12.15;54.81;96091.72;5019999;28;20056;-47
2022/09/29 02:07:10;;;;;;;5.57;3.40;;;9.00;99.90;;;12.21;54.97;96090.88;5019928;28;20050;-49
2022/09/29 02:09:44;;;;;;;5.70;2.70;;;9.10;99.90;;;12.14;55.26;96090.09;5024280;28;20344;-51
2022/09/29 02:12:18;;;;;;;4.53;2.88;;;9.00;99.90;;;12.15;55.28;96089.84;5024729;28;20336;-46
2022/09/29 02:14:49;;;;;;;5.50;3.17;;;9.00;99.90;;;12.16;55.35;96088.84;5024768;28;20042;-46
2022/09/29 02:17:28;;;;;;;4.37;2.73;;;9.00;99.90;;;12.18;55.31;96093.97;5025296;28;20056;-49
2022/09/29 02:19:56;;;;;;;4.37;2.33;;;9.00;99.90;;;12.18;55.09;96092.13;5024752;28;20049;-48
2022/09/29 02:22:24;;;;;;;3.70;2.50;;;9.00;99.90;;;12.20;55.23;96086.56;5025219;28;20351;-48
2022/09/29 02:24:55;;;;;;;5.17;2.70;;;9.00;99.90;;;12.24;55.06;96089.66;5025032;28;20052;-51
2022/09/29 02:27:24;;;;;;;6.47;2.57;;;9.10;99.90;;;12.26;54.93;96083.06;5025817;28;20056;-47
2022/09/29 02:29:52;;;;;;;3.47;2.60;;;9.10;99.90;;;12.25;55.24;96088.59;5025478;28;20366;-49
2022/09/29 02:32:20;;;;;;;4.20;2.60;;;9.10;99.90;;;12.26;55.02;96091.06;5024141;28;20054;-48
2022/09/29 02:34:50;;;;;;;7.17;3.37;;;9.10;99.90;;;12.25;55.33;96083.28;5025300;28;20042;-47
2022/09/29 02:37:53;;;;;;;9.33;5.33;;;9.10;99.90;;;12.32;55.21;96089.41;5023400;28;20241;-47
2022/09/29 02:41:14;;;;;;;6.97;3.97;;;9.10;99.90;;;12.28;55.22;96086.34;5025399;28;20061;-51
2022/09/29 02:44:08;;;;;;;7.23;5.10;;;9.10;99.90;;;12.34;55.00;96090.84;5024247;28;20049;-48
2022/09/29 02:47:09;;;;;;;14.98;7.57;;;9.10;99.90;;;12.35;54.89;96091.69;5024991;28;20063;-50
2022/09/29 02:49:57;;;;;;;11.60;6.20;;;9.20;99.90;;;12.40;55.03;96090.00;5025635;28;20056;-49
2022/09/29 02:53:01;;;;;;;7.23;4.47;;;9.20;99.90;;;12.36;55.14;96091.44;5023520;28;20045;-50
2022/09/29 02:56:14;;;;;;;6.70;3.90;;;9.20;99.90;;;12.39;54.91;96093.69;5023760;28;20054;-48
2022/09/29 02:58:49;;;;;;;4.90;3.00;;;9.20;99.90;;;12.48;54.89;96090.78;5023728;28;20363;-48
2022/09/29 03:01:17;;;;;;;5.77;3.43;;;9.20;99.90;;;12.49;54.79;96087.09;5024540;28;20046;-51
2022/09/29 03:03:44;;;;;;;5.87;2.70;;;9.30;99.90;;;12.50;55.15;96092.22;5024451;28;20045;-48
2022/09/29 03:06:15;;;;;;;4.30;2.90;;;9.30;99.90;;;12.51;55.13;96085.84;5023092;28;20042;-48
2022/09/29 03:08:43;;;;;;;4.57;3.00;;;9.40;99.90;;;12.56;54.77;96085.22;5022677;28;20053;-47
2022/09/29 03:11:10;;;;;;;3.30;2.60;;;9.30;99.90;;;12.55;54.79;96084.41;5024643;28;20042;-46
2022/09/29 03:13:38;;;;;;;5.60;3.20;;;9.30;99.90;;;12.58;55.07;96081.31;5024527;28;20044;-49
2022/09/29 03:16:06;;;;;;;5.40;2.50;;;9.30;99.90;;;12.59;54.93;96080.28;5024960;28;20046;-46
2022/09/29 03:18:34;;;;;;;3.90;2.30;;;9.40;99.90;;;12.65;54.77;96077.78;5023758;28;20050;-52
2022/09/29 03:21:02;;;;;;;4.53;2.27;;;9.40;99.90;;;12.71;54.83;96079.63;5024005;28;20050;-48
2022/09/29 03:23:30;;;;;;;4.53;2.60;;;9.50;99.90;;;12.75;54.57;96072.81;5024364;28;20046;-48
2022/09/29 03:25:58;;;;;;;3.47;2.30;;;9.60;99.90;;;12.78;54.35;96073.22;5025000;28;20054;-48
2022/09/29 03:28:26;;;;;;;5.50;2.60;;;9.60;99.90;;;12.83;54.70;96071.75;5023602;28;20336;-50
2022/09/29 03:30:54;;;;;;;4.40;3.30;;;9.60;99.90;;;12.84;54.33;96082.22;5023415;28;20248;-46
2022/09/29 03:33:22;;;;;;;6.67;3.33;;;9.60;99.90;;;12.81;54.44;96071.94;5024129;28;20048;-51
2022/09/29 03:35:50;;;;;;;3.53;3.07;;;9.60;99.90;;;12.79;54.73;96074.88;5024164;28;20042;-50
2022/09/29 03:38:18;;;;;;;6.83;2.93;;;9.50;99.90;;;12.78;54.49;96070.53;5023876;28;20058;-50
2022/09/29 03:40:46;;;;;;;2.87;2.53;;;9.50;99.90;;;12.80;54.55;96068.47;5024466;28;20271;-47
2022/09/29 03:43:14;;;;;;;6.70;2.70;;;9.60;99.90;;;12.82;54.61;96067.44;5022838;28;20053;-48
2022/09/29 03:45:53;;;;;;;8.70;7.47;;;9.60;99.90;;;12.84;54.84;96073.41;5023793;28;20050;-48
2022/09/29 03:48:22;;;;;;;5.87;3.80;;;9.60;99.90;;;12.77;54.65;96068.06;5023334;28;20279;-50
2022/09/29 03:50:52;;;;;;;5.30;3.30;;;9.50;99.90;;;12.72;54.69;96067.91;5023801;28;20046;-48
2022/09/29 03:53:20;;;;;;;6.57;3.67;;;9.40;99.90;;;12.67;54.92;96067.72;5023455;28;20063;-48
2022/09/29 03:55:50;;;;;;;6.57;3.70;;;9.30;99.90;;;12.55;54.78;96072.91;5022910;28;20060;-49
2022/09/29 03:58:18;;;;;;;4.33;3.53;;;9.20;99.90;;;12.53;55.05;96070.44;5021769;28;20054;-46
2022/09/29 04:00:48;;;;;;;3.87;2.80;;;9.20;99.90;;;12.53;54.85;96077.66;5023152;28;20053;-49
2022/09/29 04:03:16;;;;;;;2.90;2.13;;;9.20;99.90;;;12.48;54.90;96069.44;5022387;28;20045;-46
2022/09/29 04:05:46;;;;;;;3.57;2.70;;;9.20;99.90;;;12.45;55.33;96070.69;5021192;28;20058;-47
2022/09/29 04:08:15;;;;;;;4.13;3.30;;;9.20;99.90;;;12.43;55.51;96071.91;5022853;28;20240;-47
2022/09/29 04:10:46;;;;;;;5.10;3.13;;;9.10;99.90;;;12.40;54.99;96068.63;5023624;28;20042;-46
2022/09/29 04:13:15;;;;;;;4.60;3.10;;;9.10;99.90;;;12.34;55.38;96068.69;5021997;28;20065;-46
2022/09/29 04:15:48;;;;;;;5.83;2.77;;;9.00;99.90;;;12.27;55.46;96068.72;5021681;28;20322;-46
2022/09/29 04:18:18;;;;;;;4.63;3.30;;;8.90;99.90;;;12.27;55.62;96062.53;5023018;28;20064;-47
2022/09/29 04:20:46;;;;;;;5.57;3.67;;;8.90;99.90;;;12.28;55.67;96070.34;5023411;28;20049;-47
2022/09/29 04:23:14;;;;;;;5.27;3.57;;;9.00;99.90;;;12.30;55.15;96070.94;5022772;28;20055;-48
2022/09/29 04:25:44;;;;;;;6.80;3.97;;;9.10;99.90;;;12.33;55.24;96072.34;5022872;28;20052;-46
2022/09/29 04:28:12;;;;;;;7.67;3.80;;;9.10;99.90;;;12.34;55.11;96068.69;5021574;28;20367;-48
2022/09/29 04:30:40;;;;;;;7.93;4.00;;;9.00;99.90;;;12.34;54.73;96064.16;5021167;28;20053;-49
2022/09/29 04:33:09;;;;;;;7.27;3.30;;;9.00;99.90;;;12.33;55.00;96062.53;5021648;28;20050;-47
2022/09/29 04:35:36;;;;;;;4.83;3.10;;;9.10;99.90;;;12.33;54.90;96067.03;5020616;28;20061;-48
2022/09/29 04:38:06;;;;;;;5.80;3.80;;;9.00;99.90;;;12.30;55.06;96067.47;5022644;28;20054;-47
2022/09/29 04:40:35;;;;;;;4.50;3.77;;;9.00;99.90;;;12.20;54.75;96067.91;5022723;28;20046;-47
2022/09/29 04:43:04;;;;;;;7.30;3.53;;;8.80;99.90;;;12.16;55.02;96064.03;5022003;28;20247;-47
2022/09/29 04:45:32;;;;;;;6.20;3.37;;;8.90;99.90;;;12.16;55.30;96066.69;5023137;28;20065;-47
2022/09/29 04:48:00;;;;;;;8.10;4.10;;;8.80;99.90;;;12.09;55.33;96069.34;5022236;28;20042;-46
2022/09/29 04:50:28;;;;;;;19.20;10.83;;;8.80;99.90;;;12.05;55.44;96064.66;5022707;28;20045;-46
2022/09/29 04:52:56;;;;;;;9.93;5.07;;;8.70;99.90;;;12.04;55.29;96065.69;5022549;28;20235;-46
2022/09/29 04:55:25;;;;;;;8.03;5.10;;;8.70;99.90;;;11.95;55.77;96063.22;5022834;28;20045;-47
2022/09/29 04:57:52;;;;;;;7.93;4.93;;;8.60;99.90;;;11.90;55.18;96062.22;5021777;28;20049;-47
2022/09/29 05:00:20;;;;;;;4.80;3.63;;;8.50;99.90;;;11.81;55.24;96069.59;5023181;28;20049;-51
2022/09/29 05:02:48;;;;;;;6.27;4.93;;;8.40;99.90;;;11.76;55.68;96075.53;5022464;28;20050;-48
2022/09/29 05:05:17;;;;;;;4.53;3.10;;;8.40;99.90;;;11.76;56.05;96077.38;5020556;28;20052;-47
2022/09/29 05:07:44;;;;;;;7.47;3.40;;;8.40;99.90;;;11.74;56.19;96071.44;5021774;28;20050;-48
2022/09/29 05:10:12;;;;;;;5.27;3.23;;;8.40;99.90;;;11.75;55.76;96073.09;5020365;28;20046;-46
2022/09/29 05:12:45;;;;;;;4.37;3.53;;;8.50;99.90;;;11.76;55.81;96080.88;5020599;28;20057;-49
2022/09/29 05:15:14;;;;;;;4.55;3.17;;;8.50;99.90;;;11.82;56.04;96080.06;5022527;28;20046;-50
2022/09/29 05:17:42;;;;;;;4.40;3.10;;;8.60;99.90;;;11.86;55.95;96084.97;5021734;28;20075;-47
2022/09/29 05:20:10;;;;;;;4.07;2.90;;;8.70;99.90;;;11.85;55.77;96089.47;5022506;28;20049;-48
2022/09/29 05:22:38;;;;;;;4.47;2.60;;;8.70;99.90;;;11.82;55.79;96096.06;5021798;28;20060;-50
2022/09/29 05:25:07;;;;;;;4.50;3.07;;;8.60;99.90;;;11.81;56.05;96105.06;5022126;28;20050;-47
2022/09/29 05:27:36;;;;;;;6.67;4.10;;;8.60;99.90;;;11.78;55.52;96100.13;5021921;28;20366;-46
2022/09/29 05:30:05;;;;;;;5.87;4.00;;;8.50;99.90;;;11.69;56.08;96104.06;5021273;28;20049;-47
2022/09/29 05:32:33;;;;;;;8.13;4.37;;;8.40;99.90;;;11.67;56.14;96108.78;5022392;28;20046;-46
2022/09/29 05:35:02;;;;;;;6.73;4.23;;;8.40;99.90;;;11.66;56.08;96101.78;5004853;28;20052;-47
2022/09/29 05:37:30;;;;;;;7.93;4.70;;;8.40;99.90;;;11.66;55.86;96101.00;5021848;28;20225;-47
2022/09/29 05:39:57;;;;;;;5.70;3.17;;;8.40;99.90;;;11.65;55.63;96102.00;5022684;28;20053;-47
2022/09/29 05:42:26;;;;;;;10.43;3.60;;;8.30;99.90;;;11.62;55.72;96106.72;5024606;28;20189;-49
2022/09/29 05:44:54;;;;;;;4.87;3.27;;;8.30;99.90;;;11.60;55.82;96114.09;5026035;28;20049;-50
2022/09/29 05:47:23;;;;;;;13.10;4.97;;;8.30;99.90;;;11.54;56.47;96106.94;5026529;28;20054;-50
2022/09/29 05:49:50;;;;;;;11.77;5.50;;;8.30;99.90;;;11.54;56.13;96116.78;5025975;28;20052;-48
2022/09/29 05:52:18;;;;;;;9.80;4.80;;;8.30;99.90;;;11.57;56.52;96113.69;5026155;28;20049;-47
2022/09/29 05:54:49;;;;;;;9.97;4.40;;;8.40;99.90;;;11.62;56.49;96128.03;5022950;28;20379;-49
2022/09/29 05:57:18;;;;;;;5.83;4.10;;;8.40;99.90;;;11.63;56.05;96126.19;5026083;28;20076;-49
2022/09/29 05:59:46;;;;;;;7.03;4.97;;;8.50;99.90;;;11.67;56.52;96129.25;5026551;28;20362;-49
2022/09/29 06:02:15;;;;;;;7.43;4.57;;;8.50;99.90;;;11.69;56.23;96125.38;5026163;28;20054;-47
2022/09/29 06:04:43;;;;;;;6.97;3.90;;;8.50;99.90;;;11.70;55.96;96121.69;5025265;28;20050;-48
2022/09/29 06:07:11;;;;;;;10.67;4.43;;;8.50;99.90;;;11.72;56.37;96121.47;5024990;28;20042;-47
2022/09/29 06:09:39;;;;;;;7.50;4.27;;;8.60;99.90;;;11.75;56.30;96113.91;5025736;28;20046;-47
2022/09/29 06:12:07;;;;;;;5.53;4.20;;;8.60;99.90;;;11.78;56.16;96108.13;5025568;28;20042;-46
2022/09/29 06:14:35;;;;;;;12.73;11.20;;;8.60;99.90;;;11.78;55.93;96110.81;5025734;28;20045;-47
2022/09/29 06:17:03;;;;;;;9.17;5.53;;;8.50;99.90;;;11.77;56.74;96111.03;5025212;28;20058;-46
2022/09/29 06:19:30;;;;;;;7.60;5.27;;;8.60;99.90;;;11.80;56.37;96114.09;5025671;28;20052;-47
2022/09/29 06:21:58;;;;;;;10.73;4.67;;;8.60;99.90;;;11.85;56.40;96116.16;5025415;28;20049;-47
2022/09/29 06:24:26;;;;;;;8.33;5.07;;;8.70;99.90;;;11.92;56.37;96126.84;5025612;28;20382;-47
2022/09/29 06:26:54;;;;;;;14.63;7.80;;;8.80;99.90;;;11.96;56.82;96128.06;5025354;28;20057;-48
2022/09/29 06:29:22;;;;;;;9.67;5.50;;;8.80;99.90;;;11.96;56.45;96134.22;5024321;28;20048;-47
2022/09/29 06:31:49;;;;;;;10.00;4.80;;;8.80;99.90;;;11.93;56.55;96139.97;5025504;28;20041;-46
2022/09/29 06:34:17;;;;;;;9.83;6.53;;;8.70;99.90;;;11.97;56.69;96143.84;5026337;28;20056;-48
2022/09/29 06:39:32;;;;;;;13.57;6.47;;;8.80;99.90;;;12.01;56.76;96139.75;5025422;28;20054;-49
2022/09/29 06:41:59;;;;;;;10.10;5.33;;;8.80;99.90;;;12.02;56.86;96148.59;5024848;28;20378;-47
2022/09/29 06:44:29;;;;;;;11.57;6.97;;;8.80;99.90;;;12.04;56.77;96143.03;5024340;28;20084;-49
2022/09/29 06:46:58;;;;;;;20.17;10.13;;;8.80;99.90;;;12.02;57.06;96149.41;5024632;28;20056;-47
2022/09/29 06:49:26;;;;;;;16.30;9.63;;;8.80;99.90;;;12.06;56.95;96146.31;5025049;28;20042;-48
2022/09/29 06:51:54;;;;;;;14.47;7.00;;;8.80;99.90;;;12.07;56.72;96138.09;5025068;28;20077;-46
2022/09/29 06:54:25;;;;;;;6.00;3.60;;;8.90;99.90;;;12.08;57.09;96136.25;5024173;28;20049;-46
2022/09/29 06:56:54;;;;;;;8.90;5.40;;;8.90;99.90;;;12.11;56.89;96135.84;5023619;28;20056;-48
2022/09/29 06:59:22;;;;;;;7.90;4.67;;;8.90;99.90;;;12.12;57.19;96140.97;5024845;28;20072;-49
2022/09/29 07:01:50;;;;;;;11.47;5.40;;;8.90;99.90;;;12.19;56.82;96147.13;5024843;28;20052;-52
2022/09/29 07:04:20;;;;;;;6.67;4.13;;;9.00;99.90;;;12.21;56.80;96141.56;5024287;28;20052;-49
2022/09/29 07:06:49;;;;;;;9.67;4.63;;;9.00;99.90;;;12.24;57.08;96141.16;5024184;28;20050;-50
2022/09/29 07:09:17;;;;;;;4.67;3.13;;;9.10;99.90;;;12.32;57.04;96142.78;5025359;28;20052;-48
2022/09/29 07:11:49;;;;;;;4.93;3.90;;;9.20;99.90;;;12.46;56.62;96147.06;5040385;28;20050;-49
2022/09/29 07:14:21;;;;;;;5.73;3.20;;;9.30;99.90;;;12.55;56.76;96151.13;5024744;28;20366;-50
2022/09/29 07:16:50;;;;;;;4.70;2.83;;;9.40;99.90;;;12.61;56.37;96141.47;5023086;28;20046;-50
2022/09/29 07:19:19;;;;;;;4.97;3.00;;;9.40;99.90;;;12.64;56.34;96143.72;5023344;28;20068;-47
2022/09/29 07:21:47;;;;;;;5.33;3.53;;;9.50;99.90;;;12.69;56.42;96153.75;5023641;28;20092;-47
2022/09/29 07:24:16;;;;;;;5.03;3.27;;;9.50;99.90;;;12.68;55.79;96155.63;5024407;28;20071;-49
2022/09/29 07:26:43;;;;;;;5.67;2.80;;;9.50;99.90;;;12.68;56.18;96154.78;5023960;28;20052;-46
2022/09/29 07:29:12;;;;;;;4.97;3.00;;;9.50;99.90;;;12.73;56.40;96154.97;5024205;28;20052;-48
2022/09/29 07:31:44;;;;;;;5.33;3.13;;;9.50;99.90;;;12.79;55.92;96154.13;5024198;28;20050;-49
2022/09/29 07:34:20;;;;;;;5.40;2.87;;;9.60;99.90;;;12.89;55.73;96164.38;5023293;28;20048;-49
2022/09/29 07:36:49;;;;;;;4.27;3.33;;;9.70;99.90;;;12.99;55.86;96159.41;5023850;28;20344;-48
2022/09/29 07:39:20;;;;;;;4.93;3.47;;;9.80;99.90;;;13.06;55.92;96154.84;5024196;28;20045;-48
2022/09/29 07:41:49;;;;;;;5.20;3.63;;;10.00;99.90;;;13.09;56.18;96157.09;5023720;28;20046;-47
2022/09/29 07:44:17;;;;;;;6.47;4.00;;;10.10;99.90;;;13.09;56.09;96157.09;5024359;28;20061;-47
2022/09/29 07:46:47;;;;;;;5.27;3.87;;;10.00;99.90;;;13.09;56.29;96164.28;5023612;28;20054;-49
2022/09/29 07:49:15;;;;;;;8.73;4.07;;;10.00;99.90;;;13.13;56.36;96166.31;5022877;28;20042;-48
2022/09/29 07:51:42;;;;;;;6.33;3.53;;;10.10;99.90;;;13.19;56.35;96168.13;5023863;28;20060;-50
2022/09/29 07:54:10;;;;;;;6.10;4.13;;;10.20;99.90;;;13.27;56.16;96169.72;5023679;28;20046;-46
2022/09/29 07:56:38;;;;;;;7.80;4.27;;;10.30;99.90;;;13.36;56.34;96168.50;5023427;28;20363;-48
2022/09/29 07:59:08;;;;;;;10.03;4.03;;;10.40;99.90;;;13.43;56.27;96172.97;5023676;28;20046;-47
2022/09/29 08:01:36;;;;;;;11.97;5.17;;;10.40;99.90;;;13.48;56.03;96171.28;5024419;28;20050;-48
2022/09/29 08:04:04;;;;;;;9.93;4.57;;;10.40;99.90;;;13.54;56.27;96173.09;5024121;28;20053;-51
2022/09/29 08:06:32;;;;;;;10.23;4.30;;;10.50;99.90;;;13.56;56.18;96167.53;5022626;28;20054;-50
2022/09/29 08:09:01;;;;;;;6.90;3.90;;;10.50;99.90;;;13.61;55.97;96172.22;5023410;28;20046;-49
2022/09/29 08:11:36;;;;;;;7.93;3.83;;;10.60;99.90;;;13.63;55.96;96175.50;5024573;28;20052;-48
2022/09/29 08:14:05;;;;;;;9.17;4.27;;;10.60;99.90;;;13.70;55.87;96165.59;5023474;28;20046;-49
2022/09/29 08:16:34;;;;;;;6.33;4.50;;;10.70;99.90;;;13.75;56.11;96171.94;5023139;28;20045;-49
2022/09/29 08:19:04;;;;;;;11.63;4.73;;;10.70;99.90;;;13.81;55.85;96172.91;5023617;28;20045;-48
2022/09/29 08:21:36;;;;;;;7.03;4.00;;;10.80;99.90;;;13.87;55.96;96171.22;5023461;28;20052;-47
2022/09/29 08:24:05;;;;;;;7.67;4.30;;;10.90;99.90;;;13.95;55.81;96176.31;5023408;28;20052;-47
2022/09/29 08:26:36;;;;;;;6.03;4.10;;;11.00;99.90;;;14.01;55.45;96180.78;5022959;28;20060;-47
2022/09/29 08:29:13;;;;;;;7.57;3.80;;;11.10;99.90;;;14.04;55.49;96176.88;5023280;28;20054;-47
2022/09/29 08:31:44;;;;;;;5.32;3.75;;;11.10;99.90;;;14.07;55.26;96187.13;5023292;28;20271;-50
2022/09/29 08:34:13;;;;;;;8.10;4.00;;;11.10;99.90;;;14.11;55.37;96188.31;5022170;28;20056;-49
2022/09/29 08:36:41;;;;;;;6.13;3.57;;;11.20;99.90;;;14.17;55.13;96196.31;5022852;28;20060;-49
2022/09/29 08:39:10;;;;;;;5.13;3.73;;;11.30;99.90;;;14.23;55.02;96194.59;5023067;28;20050;-48
2022/09/29 08:41:53;;;;;;;5.80;3.67;;;11.30;99.90;;;14.28;55.29;96199.28;5023063;28;20072;-47
2022/09/29 08:44:33;;;;;;;5.47;4.00;;;11.30;99.90;;;14.32;54.76;96197.81;5022861;28;20221;-49
2022/09/29 08:47:29;;;;;;;5.40;3.50;;;11.30;99.90;;;14.32;55.01;96200.47;5022555;28;20052;-47
2022/09/29 08:50:25;;;;;;;6.73;4.50;;;11.40;99.90;;;14.37;54.74;96196.13;5022412;28;20042;-48
2022/09/29 08:52:59;;;;;;;6.13;3.83;;;11.30;99.90;;;14.37;54.90;96195.31;5021711;28;20240;-48
2022/09/29 08:55:51;;;;;;;9.23;4.17;;;11.40;99.90;;;14.39;54.59;96206.59;5002418;28;20050;-47
2022/09/29 08:58:19;;;;;;;8.90;5.18;;;11.40;99.90;;;14.43;54.50;96202.44;5021237;28;20046;-49
2022/09/29 09:00:59;;;;;;;5.00;3.95;;;11.40;99.90;;;14.42;54.28;96202.66;5021420;28;20060;-50
2022/09/29 09:04:05;;;;;;;9.60;3.73;;;11.40;99.90;;;14.42;54.27;96211.50;5022745;28;20050;-49
2022/09/29 09:06:47;;;;;;;4.97;3.03;;;11.50;99.90;;;14.44;53.74;96208.59;5022343;28;20045;-48
2022/09/29 09:09:43;;;;;;;8.68;3.65;;;11.50;99.90;;;14.42;53.88;96208.00;5022441;28;20048;-48
2022/09/29 09:12:53;;;;;;;5.35;2.90;;;11.50;99.90;;;14.43;54.20;96201.63;5021692;28;20049;-48
2022/09/29 09:16:02;;;;;;;4.50;2.70;;;11.50;99.90;;;14.44;54.09;96212.09;5022809;28;20344;-47
2022/09/29 09:19:22;;;;;;;5.47;3.33;;;11.50;99.90;;;14.42;54.06;96208.81;5036365;28;20064;-49
2022/09/29 09:22:09;;;;;;;22.23;14.67;;;11.50;99.90;;;14.47;54.06;96217.03;5034788;28;20245;-48
2022/09/29 09:25:19;;;;;;;15.53;9.37;;;11.50;99.90;;;14.50;54.27;96215.75;5021403;28;20049;-47
2022/09/29 09:28:18;;;;;;;9.30;5.32;;;11.50;99.90;;;14.54;53.84;96225.00;5020783;28;20084;-48
2022/09/29 09:30:55;;;;;;;7.50;4.80;;;11.50;99.90;;;14.59;54.08;96221.69;5024217;28;20050;-49
2022/09/29 09:33:42;;;;;;;10.30;6.10;;;11.60;99.90;;;14.61;54.12;96222.28;5021376;28;20046;-47
2022/09/29 09:36:32;;;;;;;5.65;4.70;;;11.70;99.90;;;14.64;54.16;96229.91;5022392;28;20221;-51
2022/09/29 09:39:16;;;;;;;7.25;5.18;;;11.70;99.90;;;14.58;54.23;96228.91;5021352;28;20052;-54
2022/09/29 09:41:49;;;;;;;21.30;12.70;;;11.70;99.90;;;14.65;54.17;96229.66;5020938;28;20222;-51
2022/09/29 09:44:24;;;;;;;9.48;7.78;;;11.70;99.90;;;14.72;54.02;96229.59;5021150;28;20049;-49
2022/09/29 09:47:00;;;;;;;8.82;5.95;;;11.80;99.90;;;14.77;54.08;96229.72;5020783;28;20370;-48
2022/09/29 09:49:42;;;;;;;11.77;7.23;;;11.80;99.90;;;14.87;53.84;96232.72;5022220;28;20240;-47
2022/09/29 09:52:38;;;;;;;11.47;6.67;;;11.90;99.90;;;14.95;53.69;96228.94;5021344;28;20042;-50
2022/09/29 09:55:15;;;;;;;17.15;8.88;;;12.00;99.90;;;15.08;53.60;96233.31;5021013;28;20362;-50
2022/09/29 09:58:19;;;;;;;8.73;5.40;;;12.10;99.90;;;15.19;53.72;96231.75;5020956;28;20062;-49
2022/09/29 10:00:56;;;;;;;8.63;7.07;;;12.30;99.90;;;15.24;53.57;96230.03;5022257;28;20065;-48
2022/09/29 10:03:25;;;;;;;6.28;4.63;;;12.30;99.90;;;15.31;53.42;96235.31;5021230;28;20240;-49
2022/09/29 10:05:53;;;;;;;15.88;11.25;;;12.40;99.90;;;15.39;53.04;96234.19;5021035;28;20064;-52
2022/09/29 10:08:38;;;;;;;10.20;6.03;;;12.50;99.90;;;15.47;52.86;96234.69;5021475;28;20244;-48
2022/09/29 10:11:29;;;;;;;16.88;11.30;;;12.60;99.90;;;15.59;53.00;96237.44;5019830;28;20060;-50
2022/09/29 10:14:10;;;;;;;8.98;5.50;;;12.70;99.80;;;15.69;52.22;96239.56;5022692;28;20072;-53
2022/09/29 10:16:49;;;;;;;17.77;12.00;;;12.80;98.90;;;15.75;52.19;96241.38;5020702;28;20042;-53
2022/09/29 10:19:52;;;;;;;13.88;10.13;;;12.80;99.60;;;15.83;52.46;96234.84;5022078;28;20050;-49
2022/09/29 10:22:20;;;;;;;15.02;10.73;;;12.90;99.30;;;15.91;52.04;96232.66;5021905;28;20060;-52
2022/09/29 10:24:55;;;;;;;13.73;7.03;;;13.00;99.30;;;15.96;51.80;96231.97;5021833;28;20054;-52
2022/09/29 10:27:27;;;;;;;23.00;15.10;;;13.10;97.80;;;16.03;51.56;96237.22;5021533;28;20229;-50
2022/09/29 10:29:57;;;;;;;25.15;10.85;;;13.10;98.10;;;16.06;51.63;96237.59;5023929;28;20260;-48
2022/09/29 10:32:35;;;;;;;11.77;7.25;;;13.10;98.10;;;16.09;51.17;96234.47;5024414;28;20048;-50
2022/09/29 10:35:26;;;;;;;8.98;5.80;;;13.20;96.60;;;16.13;51.51;96234.81;5025348;28;20060;-50
2022/09/29 10:38:06;;;;;;;14.52;10.65;;;13.20;95.50;;;16.19;51.21;96235.75;5040166;28;20046;-50
2022/09/29 10:40:35;;;;;;;14.32;10.30;;;13.30;95.20;;;16.21;50.98;96239.84;5008904;28;20053;-50
2022/09/29 10:43:35;;;;;;;14.93;10.30;;;13.30;94.60;;;16.23;51.23;96242.31;5025185;28;20068;-50
2022/09/29 10:46:24;;;;;;;7.90;4.43;;;13.30;88.30;;;16.26;50.05;96233.78;5025140;28;20050;-54
2022/09/29 10:49:23;;;;;;;22.65;6.10;;;13.30;89.60;;;16.26;50.73;96239.97;5025319;28;20054;-52
2022/09/29 10:52:01;;;;;;;12.05;7.82;;;13.30;86.50;;;16.31;50.00;96234.72;5024693;28;20046;-51
2022/09/29 10:54:38;;;;;;;9.52;5.28;;;13.30;89.00;;;16.36;50.02;96243.94;5024898;28;20050;-52
2022/09/29 10:57:14;;;;;;;21.20;11.95;;;13.40;88.30;;;16.41;50.38;96241.41;5023558;28;20042;-50
2022/09/29 10:59:51;;;;;;;9.00;5.18;;;13.40;87.80;;;16.45;50.17;96248.75;5025166;28;20064;-52
2022/09/29 11:02:38;;;;;;;12.35;6.38;;;13.50;87.10;;;16.50;50.28;96240.00;5024771;28;20052;-54